sensor_id;sensor_type;location;lat;lon;timestamp;P1;P2;P0
49644;PMS5003;36494;50.730;-1.932;2024-02-26T00:00:44;13;13;
49644;PMS5003;36494;50.730;-1.932;2024-02-26T00:03:10;13;12;
49644;PMS5003;36494;50.730;-1.932;2024-02-26T00:05:36;19;18;
49644;PMS5003;36494;50.730;-1.932;2024-02-26T00:08:01;15;15;
49644;PMS5003;36494;50.730;-1.932;2024-02-26T00:10:27;15;15;
49644;PMS5003;36494;50.730;-1.932;2024-02-26T00:12:53;12;12;
49644;PMS5003;36494;50.730;-1.932;2024-02-26T00:15:19;18;16;
49644;PMS5003;36494;50.730;-1.932;2024-02-26T00:17:44;13;13;
49644;PMS5003;36494;50.730;-1.932;2024-02-26T00:20:10;16;15;
49644;PMS5003;36494;50.730;-1.932;2024-02-26T00:22:35;13;13;
49644;PMS5003;36494;50.730;-1.932;2024-02-26T00:25:01;16;15;
49644;PMS5003;36494;50.730;-1.932;2024-02-26T00:27:27;22;19;
49644;PMS5003;36494;50.730;-1.932;2024-02-26T00:29:53;15;15;
49644;PMS5003;36494;50.730;-1.932;2024-02-26T00:32:19;12;12;
49644;PMS5003;36494;50.730;-1.932;2024-02-26T00:34:44;16;15;
49644;PMS5003;36494;50.730;-1.932;2024-02-26T00:37:10;13;13;
49644;PMS5003;36494;50.730;-1.932;2024-02-26T00:39:40;15;13;
49644;PMS5003;36494;50.730;-1.932;2024-02-26T00:42:01;16;16;
49644;PMS5003;36494;50.730;-1.932;2024-02-26T00:44:27;16;16;
49644;PMS5003;36494;50.730;-1.932;2024-02-26T00:46:52;13;13;
49644;PMS5003;36494;50.730;-1.932;2024-02-26T00:49:18;15;15;
49644;PMS5003;36494;50.730;-1.932;2024-02-26T00:51:43;15;15;
49644;PMS5003;36494;50.730;-1.932;2024-02-26T00:54:09;21;19;
49644;PMS5003;36494;50.730;-1.932;2024-02-26T00:56:34;22;21;
49644;PMS5003;36494;50.730;-1.932;2024-02-26T00:58:59;15;15;
49644;PMS5003;36494;50.730;-1.932;2024-02-26T01:01:25;18;18;
49644;PMS5003;36494;50.730;-1.932;2024-02-26T01:03:52;18;18;
49644;PMS5003;36494;50.730;-1.932;2024-02-26T01:06:18;21;19;
49644;PMS5003;36494;50.730;-1.932;2024-02-26T01:08:43;15;15;
49644;PMS5003;36494;50.730;-1.932;2024-02-26T01:11:09;15;15;
49644;PMS5003;36494;50.730;-1.932;2024-02-26T01:13:34;15;15;
49644;PMS5003;36494;50.730;-1.932;2024-02-26T01:16:00;15;15;
49644;PMS5003;36494;50.730;-1.932;2024-02-26T01:18:25;15;13;
49644;PMS5003;36494;50.730;-1.932;2024-02-26T01:20:50;18;16;
49644;PMS5003;36494;50.730;-1.932;2024-02-26T01:23:16;22;21;
49644;PMS5003;36494;50.730;-1.932;2024-02-26T01:25:41;19;19;
49644;PMS5003;36494;50.730;-1.932;2024-02-26T01:28:07;15;13;
49644;PMS5003;36494;50.730;-1.932;2024-02-26T01:30:32;18;15;
49644;PMS5003;36494;50.730;-1.932;2024-02-26T01:32:58;18;16;
49644;PMS5003;36494;50.730;-1.932;2024-02-26T01:35:24;15;15;
49644;PMS5003;36494;50.730;-1.932;2024-02-26T01:37:49;18;18;
49644;PMS5003;36494;50.730;-1.932;2024-02-26T01:40:15;18;16;
49644;PMS5003;36494;50.730;-1.932;2024-02-26T01:42:40;15;15;
49644;PMS5003;36494;50.730;-1.932;2024-02-26T01:45:06;19;19;
49644;PMS5003;36494;50.730;-1.932;2024-02-26T01:47:32;13;13;
49644;PMS5003;36494;50.730;-1.932;2024-02-26T01:49:57;16;16;
49644;PMS5003;36494;50.730;-1.932;2024-02-26T01:52:24;16;16;
49644;PMS5003;36494;50.730;-1.932;2024-02-26T01:54:49;21;21;
49644;PMS5003;36494;50.730;-1.932;2024-02-26T01:57:15;19;19;
49644;PMS5003;36494;50.730;-1.932;2024-02-26T01:59:40;19;18;
49644;PMS5003;36494;50.730;-1.932;2024-02-26T02:02:06;16;16;
49644;PMS5003;36494;50.730;-1.932;2024-02-26T02:04:32;16;16;
49644;PMS5003;36494;50.730;-1.932;2024-02-26T02:06:57;18;16;
49644;PMS5003;36494;50.730;-1.932;2024-02-26T02:09:23;15;13;
49644;PMS5003;36494;50.730;-1.932;2024-02-26T02:11:48;22;18;
49644;PMS5003;36494;50.730;-1.932;2024-02-26T02:14:13;18;16;
49644;PMS5003;36494;50.730;-1.932;2024-02-26T02:16:40;16;16;
49644;PMS5003;36494;50.730;-1.932;2024-02-26T02:19:04;16;16;
49644;PMS5003;36494;50.730;-1.932;2024-02-26T02:21:30;16;16;
49644;PMS5003;36494;50.730;-1.932;2024-02-26T02:23:56;19;19;
49644;PMS5003;36494;50.730;-1.932;2024-02-26T02:26:22;19;18;
49644;PMS5003;36494;50.730;-1.932;2024-02-26T02:28:50;21;18;
49644;PMS5003;36494;50.730;-1.932;2024-02-26T02:31:13;21;16;
49644;PMS5003;36494;50.730;-1.932;2024-02-26T02:33:39;21;21;
49644;PMS5003;36494;50.730;-1.932;2024-02-26T02:36:04;19;16;
49644;PMS5003;36494;50.730;-1.932;2024-02-26T02:38:30;19;18;
49644;PMS5003;36494;50.730;-1.932;2024-02-26T02:40:56;18;16;
49644;PMS5003;36494;50.730;-1.932;2024-02-26T02:43:21;15;15;
49644;PMS5003;36494;50.730;-1.932;2024-02-26T02:45:47;18;16;
49644;PMS5003;36494;50.730;-1.932;2024-02-26T02:48:12;16;16;
49644;PMS5003;36494;50.730;-1.932;2024-02-26T02:50:38;13;13;
49644;PMS5003;36494;50.730;-1.932;2024-02-26T02:53:04;15;15;
49644;PMS5003;36494;50.730;-1.932;2024-02-26T02:55:29;15;13;
49644;PMS5003;36494;50.730;-1.932;2024-02-26T02:57:55;16;16;
49644;PMS5003;36494;50.730;-1.932;2024-02-26T03:00:25;13;13;
49644;PMS5003;36494;50.730;-1.932;2024-02-26T03:02:46;13;13;
49644;PMS5003;36494;50.730;-1.932;2024-02-26T03:05:11;18;16;
49644;PMS5003;36494;50.730;-1.932;2024-02-26T03:07:38;12;12;
49644;PMS5003;36494;50.730;-1.932;2024-02-26T03:10:04;12;12;
49644;PMS5003;36494;50.730;-1.932;2024-02-26T03:12:29;12;12;
49644;PMS5003;36494;50.730;-1.932;2024-02-26T03:14:55;13;13;
49644;PMS5003;36494;50.730;-1.932;2024-02-26T03:17:20;13;13;
49644;PMS5003;36494;50.730;-1.932;2024-02-26T03:19:46;15;15;
49644;PMS5003;36494;50.730;-1.932;2024-02-26T03:22:11;15;15;
49644;PMS5003;36494;50.730;-1.932;2024-02-26T03:24:37;13;12;
49644;PMS5003;36494;50.730;-1.932;2024-02-26T03:27:03;13;13;
49644;PMS5003;36494;50.730;-1.932;2024-02-26T03:29:29;15;15;
49644;PMS5003;36494;50.730;-1.932;2024-02-26T03:31:54;15;13;
49644;PMS5003;36494;50.730;-1.932;2024-02-26T03:34:19;16;15;
49644;PMS5003;36494;50.730;-1.932;2024-02-26T03:36:45;13;10;
49644;PMS5003;36494;50.730;-1.932;2024-02-26T03:39:10;13;12;
49644;PMS5003;36494;50.730;-1.932;2024-02-26T03:41:37;10;10;
49644;PMS5003;36494;50.730;-1.932;2024-02-26T03:44:02;10;10;
49644;PMS5003;36494;50.730;-1.932;2024-02-26T03:46:27;12;12;
49644;PMS5003;36494;50.730;-1.932;2024-02-26T03:48:53;12;12;
49644;PMS5003;36494;50.730;-1.932;2024-02-26T03:51:19;12;12;
49644;PMS5003;36494;50.730;-1.932;2024-02-26T03:53:44;13;13;
49644;PMS5003;36494;50.730;-1.932;2024-02-26T03:56:11;9;9;
49644;PMS5003;36494;50.730;-1.932;2024-02-26T03:58:36;12;10;
49644;PMS5003;36494;50.730;-1.932;2024-02-26T04:01:01;13;12;
49644;PMS5003;36494;50.730;-1.932;2024-02-26T04:03:27;10;10;
49644;PMS5003;36494;50.730;-1.932;2024-02-26T04:05:55;10;10;
49644;PMS5003;36494;50.730;-1.932;2024-02-26T04:08:18;10;10;
49644;PMS5003;36494;50.730;-1.932;2024-02-26T04:10:44;9;9;
49644;PMS5003;36494;50.730;-1.932;2024-02-26T04:13:10;9;9;
49644;PMS5003;36494;50.730;-1.932;2024-02-26T04:15:36;13;12;
49644;PMS5003;36494;50.730;-1.932;2024-02-26T04:18:05;9;9;
49644;PMS5003;36494;50.730;-1.932;2024-02-26T04:20:27;7;7;
49644;PMS5003;36494;50.730;-1.932;2024-02-26T04:22:53;10;10;
49644;PMS5003;36494;50.730;-1.932;2024-02-26T04:25:19;9;9;
49644;PMS5003;36494;50.730;-1.932;2024-02-26T04:27:44;9;9;
49644;PMS5003;36494;50.730;-1.932;2024-02-26T04:30:10;10;9;
49644;PMS5003;36494;50.730;-1.932;2024-02-26T04:32:35;9;9;
49644;PMS5003;36494;50.730;-1.932;2024-02-26T04:35:01;6;6;
49644;PMS5003;36494;50.730;-1.932;2024-02-26T04:37:26;9;9;
49644;PMS5003;36494;50.730;-1.932;2024-02-26T04:39:52;9;9;
49644;PMS5003;36494;50.730;-1.932;2024-02-26T04:42:20;7;6;
49644;PMS5003;36494;50.730;-1.932;2024-02-26T04:44:44;10;10;
49644;PMS5003;36494;50.730;-1.932;2024-02-26T04:47:10;9;7;
49644;PMS5003;36494;50.730;-1.932;2024-02-26T04:49:35;4;4;
49644;PMS5003;36494;50.730;-1.932;2024-02-26T04:52:01;7;7;
49644;PMS5003;36494;50.730;-1.932;2024-02-26T04:54:29;6;6;
49644;PMS5003;36494;50.730;-1.932;2024-02-26T04:56:52;6;6;
49644;PMS5003;36494;50.730;-1.932;2024-02-26T04:59:18;9;9;
49644;PMS5003;36494;50.730;-1.932;2024-02-26T05:01:44;7;7;
49644;PMS5003;36494;50.730;-1.932;2024-02-26T05:04:09;7;7;
49644;PMS5003;36494;50.730;-1.932;2024-02-26T05:06:36;6;6;
49644;PMS5003;36494;50.730;-1.932;2024-02-26T05:09:02;7;7;
49644;PMS5003;36494;50.730;-1.932;2024-02-26T05:11:27;10;9;
49644;PMS5003;36494;50.730;-1.932;2024-02-26T05:13:53;7;7;
49644;PMS5003;36494;50.730;-1.932;2024-02-26T05:16:19;9;9;
49644;PMS5003;36494;50.730;-1.932;2024-02-26T05:18:46;6;6;
49644;PMS5003;36494;50.730;-1.932;2024-02-26T05:21:10;7;7;
49644;PMS5003;36494;50.730;-1.932;2024-02-26T05:23:36;9;7;
49644;PMS5003;36494;50.730;-1.932;2024-02-26T05:26:01;7;6;
49644;PMS5003;36494;50.730;-1.932;2024-02-26T05:28:27;10;7;
49644;PMS5003;36494;50.730;-1.932;2024-02-26T05:30:55;7;6;
49644;PMS5003;36494;50.730;-1.932;2024-02-26T05:33:19;7;7;
49644;PMS5003;36494;50.730;-1.932;2024-02-26T05:35:44;10;9;
49644;PMS5003;36494;50.730;-1.932;2024-02-26T05:38:10;9;9;
49644;PMS5003;36494;50.730;-1.932;2024-02-26T05:40:36;9;7;
49644;PMS5003;36494;50.730;-1.932;2024-02-26T05:43:04;7;6;
49644;PMS5003;36494;50.730;-1.932;2024-02-26T05:45:27;7;6;
49644;PMS5003;36494;50.730;-1.932;2024-02-26T05:47:52;7;6;
49644;PMS5003;36494;50.730;-1.932;2024-02-26T05:50:18;6;6;
49644;PMS5003;36494;50.730;-1.932;2024-02-26T05:52:43;6;6;
49644;PMS5003;36494;50.730;-1.932;2024-02-26T05:55:09;6;6;
49644;PMS5003;36494;50.730;-1.932;2024-02-26T05:57:35;6;6;
49644;PMS5003;36494;50.730;-1.932;2024-02-26T06:00:00;4;4;
49644;PMS5003;36494;50.730;-1.932;2024-02-26T06:02:26;4;3;
49644;PMS5003;36494;50.730;-1.932;2024-02-26T06:04:53;6;6;
49644;PMS5003;36494;50.730;-1.932;2024-02-26T06:07:18;6;6;
49644;PMS5003;36494;50.730;-1.932;2024-02-26T06:09:44;4;4;
49644;PMS5003;36494;50.730;-1.932;2024-02-26T06:12:10;6;3;
49644;PMS5003;36494;50.730;-1.932;2024-02-26T06:14:35;7;6;
49644;PMS5003;36494;50.730;-1.932;2024-02-26T06:17:01;3;3;
49644;PMS5003;36494;50.730;-1.932;2024-02-26T06:19:27;6;6;
49644;PMS5003;36494;50.730;-1.932;2024-02-26T06:21:52;4;4;
49644;PMS5003;36494;50.730;-1.932;2024-02-26T06:24:18;3;3;
49644;PMS5003;36494;50.730;-1.932;2024-02-26T06:26:43;4;4;
49644;PMS5003;36494;50.730;-1.932;2024-02-26T06:29:10;6;4;
49644;PMS5003;36494;50.730;-1.932;2024-02-26T06:31:36;4;3;
49644;PMS5003;36494;50.730;-1.932;2024-02-26T06:34:01;4;4;
49644;PMS5003;36494;50.730;-1.932;2024-02-26T06:36:27;7;7;
49644;PMS5003;36494;50.730;-1.932;2024-02-26T06:38:53;4;4;
49644;PMS5003;36494;50.730;-1.932;2024-02-26T06:41:18;6;6;
49644;PMS5003;36494;50.730;-1.932;2024-02-26T06:43:44;6;4;
49644;PMS5003;36494;50.730;-1.932;2024-02-26T06:46:10;4;4;
49644;PMS5003;36494;50.730;-1.932;2024-02-26T06:48:35;4;4;
49644;PMS5003;36494;50.730;-1.932;2024-02-26T06:51:01;4;4;
49644;PMS5003;36494;50.730;-1.932;2024-02-26T06:53:28;4;4;
49644;PMS5003;36494;50.730;-1.932;2024-02-26T06:55:53;4;4;
49644;PMS5003;36494;50.730;-1.932;2024-02-26T06:58:19;4;3;
49644;PMS5003;36494;50.730;-1.932;2024-02-26T07:00:44;4;4;
49644;PMS5003;36494;50.730;-1.932;2024-02-26T07:05:36;3;3;
49644;PMS5003;36494;50.730;-1.932;2024-02-26T07:08:01;4;4;
49644;PMS5003;36494;50.730;-1.932;2024-02-26T07:10:27;3;3;
49644;PMS5003;36494;50.730;-1.932;2024-02-26T07:12:53;4;4;
49644;PMS5003;36494;50.730;-1.932;2024-02-26T07:15:18;4;3;
49644;PMS5003;36494;50.730;-1.932;2024-02-26T07:17:44;3;3;
49644;PMS5003;36494;50.730;-1.932;2024-02-26T07:20:15;4;4;
49644;PMS5003;36494;50.730;-1.932;2024-02-26T07:22:36;4;3;
49644;PMS5003;36494;50.730;-1.932;2024-02-26T07:25:02;3;3;
49644;PMS5003;36494;50.730;-1.932;2024-02-26T07:27:28;3;3;
49644;PMS5003;36494;50.730;-1.932;2024-02-26T07:29:53;3;3;
49644;PMS5003;36494;50.730;-1.932;2024-02-26T07:32:19;4;4;
49644;PMS5003;36494;50.730;-1.932;2024-02-26T07:34:45;3;1;
49644;PMS5003;36494;50.730;-1.932;2024-02-26T07:37:10;4;4;
49644;PMS5003;36494;50.730;-1.932;2024-02-26T07:39:36;4;3;
49644;PMS5003;36494;50.730;-1.932;2024-02-26T07:42:02;6;6;
49644;PMS5003;36494;50.730;-1.932;2024-02-26T07:44:32;3;3;
49644;PMS5003;36494;50.730;-1.932;2024-02-26T07:46:54;6;6;
49644;PMS5003;36494;50.730;-1.932;2024-02-26T07:49:20;4;4;
49644;PMS5003;36494;50.730;-1.932;2024-02-26T07:51:45;1;1;
49644;PMS5003;36494;50.730;-1.932;2024-02-26T07:54:11;4;4;
49644;PMS5003;36494;50.730;-1.932;2024-02-26T07:56:37;4;4;
49644;PMS5003;36494;50.730;-1.932;2024-02-26T07:59:02;4;3;
49644;PMS5003;36494;50.730;-1.932;2024-02-26T08:01:28;7;4;
49644;PMS5003;36494;50.730;-1.932;2024-02-26T08:03:54;3;3;
49644;PMS5003;36494;50.730;-1.932;2024-02-26T08:06:21;4;4;
49644;PMS5003;36494;50.730;-1.932;2024-02-26T08:08:46;7;6;
49644;PMS5003;36494;50.730;-1.932;2024-02-26T08:11:14;3;3;
49644;PMS5003;36494;50.730;-1.932;2024-02-26T08:13:37;4;4;
49644;PMS5003;36494;50.730;-1.932;2024-02-26T08:16:03;6;4;
49644;PMS5003;36494;50.730;-1.932;2024-02-26T08:18:28;3;3;
49644;PMS5003;36494;50.730;-1.932;2024-02-26T08:20:54;3;3;
49644;PMS5003;36494;50.730;-1.932;2024-02-26T08:23:20;4;4;
49644;PMS5003;36494;50.730;-1.932;2024-02-26T08:25:45;4;4;
49644;PMS5003;36494;50.730;-1.932;2024-02-26T08:28:11;4;4;
49644;PMS5003;36494;50.730;-1.932;2024-02-26T08:30:37;4;4;
49644;PMS5003;36494;50.730;-1.932;2024-02-26T08:33:06;3;3;
49644;PMS5003;36494;50.730;-1.932;2024-02-26T08:35:29;3;3;
49644;PMS5003;36494;50.730;-1.932;2024-02-26T08:37:55;4;4;
49644;PMS5003;36494;50.730;-1.932;2024-02-26T08:40:20;3;3;
49644;PMS5003;36494;50.730;-1.932;2024-02-26T08:42:46;6;4;
49644;PMS5003;36494;50.730;-1.932;2024-02-26T08:45:12;3;3;
49644;PMS5003;36494;50.730;-1.932;2024-02-26T08:47:37;4;3;
49644;PMS5003;36494;50.730;-1.932;2024-02-26T08:50:03;4;3;
49644;PMS5003;36494;50.730;-1.932;2024-02-26T08:52:29;6;3;
49644;PMS5003;36494;50.730;-1.932;2024-02-26T08:54:54;4;4;
49644;PMS5003;36494;50.730;-1.932;2024-02-26T08:57:21;4;4;
49644;PMS5003;36494;50.730;-1.932;2024-02-26T08:59:47;4;3;
49644;PMS5003;36494;50.730;-1.932;2024-02-26T09:02:12;3;3;
49644;PMS5003;36494;50.730;-1.932;2024-02-26T09:04:38;1;1;
49644;PMS5003;36494;50.730;-1.932;2024-02-26T09:07:03;6;4;
49644;PMS5003;36494;50.730;-1.932;2024-02-26T09:09:31;1;1;
49644;PMS5003;36494;50.730;-1.932;2024-02-26T09:11:55;3;3;
49644;PMS5003;36494;50.730;-1.932;2024-02-26T09:14:20;3;3;
49644;PMS5003;36494;50.730;-1.932;2024-02-26T09:16:46;1;0;
49644;PMS5003;36494;50.730;-1.932;2024-02-26T09:19:12;4;4;
49644;PMS5003;36494;50.730;-1.932;2024-02-26T09:21:43;1;1;
49644;PMS5003;36494;50.730;-1.932;2024-02-26T09:24:04;3;0;
49644;PMS5003;36494;50.730;-1.932;2024-02-26T09:26:30;3;3;
49644;PMS5003;36494;50.730;-1.932;2024-02-26T09:28:55;3;3;
49644;PMS5003;36494;50.730;-1.932;2024-02-26T09:31:21;1;1;
49644;PMS5003;36494;50.730;-1.932;2024-02-26T09:33:47;3;3;
49644;PMS5003;36494;50.730;-1.932;2024-02-26T09:36:12;3;3;
49644;PMS5003;36494;50.730;-1.932;2024-02-26T09:38:37;3;1;
49644;PMS5003;36494;50.730;-1.932;2024-02-26T09:41:03;4;3;
49644;PMS5003;36494;50.730;-1.932;2024-02-26T09:43:31;1;1;
49644;PMS5003;36494;50.730;-1.932;2024-02-26T09:45:54;3;1;
49644;PMS5003;36494;50.730;-1.932;2024-02-26T09:48:20;3;3;
49644;PMS5003;36494;50.730;-1.932;2024-02-26T09:50:46;3;1;
49644;PMS5003;36494;50.730;-1.932;2024-02-26T09:53:12;3;3;
49644;PMS5003;36494;50.730;-1.932;2024-02-26T09:55:38;1;1;
49644;PMS5003;36494;50.730;-1.932;2024-02-26T09:58:04;1;1;
49644;PMS5003;36494;50.730;-1.932;2024-02-26T10:00:30;3;3;
49644;PMS5003;36494;50.730;-1.932;2024-02-26T10:02:55;1;1;
49644;PMS5003;36494;50.730;-1.932;2024-02-26T10:05:20;1;1;
49644;PMS5003;36494;50.730;-1.932;2024-02-26T10:07:46;1;1;
49644;PMS5003;36494;50.730;-1.932;2024-02-26T10:10:12;3;1;
49644;PMS5003;36494;50.730;-1.932;2024-02-26T10:12:37;3;3;
49644;PMS5003;36494;50.730;-1.932;2024-02-26T10:15:03;1;1;
49644;PMS5003;36494;50.730;-1.932;2024-02-26T10:17:30;1;1;
49644;PMS5003;36494;50.730;-1.932;2024-02-26T10:19:58;0;0;
49644;PMS5003;36494;50.730;-1.932;2024-02-26T10:22:21;1;1;
49644;PMS5003;36494;50.730;-1.932;2024-02-26T10:24:47;1;1;
49644;PMS5003;36494;50.730;-1.932;2024-02-26T10:27:12;0;0;
49644;PMS5003;36494;50.730;-1.932;2024-02-26T10:29:38;0;0;
49644;PMS5003;36494;50.730;-1.932;2024-02-26T10:32:04;3;1;
49644;PMS5003;36494;50.730;-1.932;2024-02-26T10:34:34;1;1;
49644;PMS5003;36494;50.730;-1.932;2024-02-26T10:36:55;3;3;
49644;PMS5003;36494;50.730;-1.932;2024-02-26T10:39:20;1;1;
49644;PMS5003;36494;50.730;-1.932;2024-02-26T10:41:47;4;4;
49644;PMS5003;36494;50.730;-1.932;2024-02-26T10:44:16;4;4;
49644;PMS5003;36494;50.730;-1.932;2024-02-26T10:46:38;4;4;
49644;PMS5003;36494;50.730;-1.932;2024-02-26T10:49:04;1;1;
49644;PMS5003;36494;50.730;-1.932;2024-02-26T10:51:30;1;1;
49644;PMS5003;36494;50.730;-1.932;2024-02-26T10:53:56;3;3;
49644;PMS5003;36494;50.730;-1.932;2024-02-26T10:56:21;3;3;
49644;PMS5003;36494;50.730;-1.932;2024-02-26T10:58:48;3;3;
49644;PMS5003;36494;50.730;-1.932;2024-02-26T11:01:12;4;4;
49644;PMS5003;36494;50.730;-1.932;2024-02-26T11:03:38;1;1;
49644;PMS5003;36494;50.730;-1.932;2024-02-26T11:06:04;3;1;
49644;PMS5003;36494;50.730;-1.932;2024-02-26T11:08:30;4;4;
49644;PMS5003;36494;50.730;-1.932;2024-02-26T11:10:55;4;4;
49644;PMS5003;36494;50.730;-1.932;2024-02-26T11:13:21;3;3;
49644;PMS5003;36494;50.730;-1.932;2024-02-26T11:15:47;3;3;
49644;PMS5003;36494;50.730;-1.932;2024-02-26T11:18:13;1;1;
49644;PMS5003;36494;50.730;-1.932;2024-02-26T11:20:38;3;3;
49644;PMS5003;36494;50.730;-1.932;2024-02-26T11:23:04;3;3;
49644;PMS5003;36494;50.730;-1.932;2024-02-26T11:25:29;15;15;
49644;PMS5003;36494;50.730;-1.932;2024-02-26T11:27:56;4;4;
49644;PMS5003;36494;50.730;-1.932;2024-02-26T11:30:21;7;7;
49644;PMS5003;36494;50.730;-1.932;2024-02-26T11:32:47;3;1;
49644;PMS5003;36494;50.730;-1.932;2024-02-26T11:35:13;3;3;
49644;PMS5003;36494;50.730;-1.932;2024-02-26T11:37:38;3;1;
49644;PMS5003;36494;50.730;-1.932;2024-02-26T11:40:04;1;1;
49644;PMS5003;36494;50.730;-1.932;2024-02-26T11:42:30;0;0;
49644;PMS5003;36494;50.730;-1.932;2024-02-26T11:44:55;1;1;
49644;PMS5003;36494;50.730;-1.932;2024-02-26T11:47:24;3;3;
49644;PMS5003;36494;50.730;-1.932;2024-02-26T11:49:46;3;1;
49644;PMS5003;36494;50.730;-1.932;2024-02-26T11:52:13;1;1;
49644;PMS5003;36494;50.730;-1.932;2024-02-26T11:54:39;3;3;
49644;PMS5003;36494;50.730;-1.932;2024-02-26T11:57:04;1;1;
49644;PMS5003;36494;50.730;-1.932;2024-02-26T11:59:39;1;1;
49644;PMS5003;36494;50.730;-1.932;2024-02-26T12:01:55;1;1;
49644;PMS5003;36494;50.730;-1.932;2024-02-26T12:04:21;0;0;
49644;PMS5003;36494;50.730;-1.932;2024-02-26T12:06:47;1;1;
49644;PMS5003;36494;50.730;-1.932;2024-02-26T12:09:11;3;3;
49644;PMS5003;36494;50.730;-1.932;2024-02-26T12:11:37;3;3;
49644;PMS5003;36494;50.730;-1.932;2024-02-26T12:14:03;1;1;
49644;PMS5003;36494;50.730;-1.932;2024-02-26T12:16:35;1;1;
49644;PMS5003;36494;50.730;-1.932;2024-02-26T12:18:54;1;1;
49644;PMS5003;36494;50.730;-1.932;2024-02-26T12:21:19;1;1;
49644;PMS5003;36494;50.730;-1.932;2024-02-26T12:23:46;1;1;
49644;PMS5003;36494;50.730;-1.932;2024-02-26T12:26:12;6;3;
49644;PMS5003;36494;50.730;-1.932;2024-02-26T12:28:37;3;3;
49644;PMS5003;36494;50.730;-1.932;2024-02-26T12:31:03;3;3;
49644;PMS5003;36494;50.730;-1.932;2024-02-26T12:33:30;3;1;
49644;PMS5003;36494;50.730;-1.932;2024-02-26T12:35:54;3;3;
49644;PMS5003;36494;50.730;-1.932;2024-02-26T12:38:19;3;3;
49644;PMS5003;36494;50.730;-1.932;2024-02-26T12:40:45;3;3;
49644;PMS5003;36494;50.730;-1.932;2024-02-26T12:43:10;3;3;
49644;PMS5003;36494;50.730;-1.932;2024-02-26T12:45:39;1;1;
49644;PMS5003;36494;50.730;-1.932;2024-02-26T12:48:05;0;0;
49644;PMS5003;36494;50.730;-1.932;2024-02-26T12:50:28;1;1;
49644;PMS5003;36494;50.730;-1.932;2024-02-26T12:52:54;3;3;
49644;PMS5003;36494;50.730;-1.932;2024-02-26T12:55:19;1;1;
49644;PMS5003;36494;50.730;-1.932;2024-02-26T12:57:45;3;3;
49644;PMS5003;36494;50.730;-1.932;2024-02-26T13:00:12;0;0;
49644;PMS5003;36494;50.730;-1.932;2024-02-26T13:02:36;1;1;
49644;PMS5003;36494;50.730;-1.932;2024-02-26T13:05:01;3;3;
49644;PMS5003;36494;50.730;-1.932;2024-02-26T13:07:27;1;0;
49644;PMS5003;36494;50.730;-1.932;2024-02-26T13:09:52;1;1;
49644;PMS5003;36494;50.730;-1.932;2024-02-26T13:12:18;1;1;
49644;PMS5003;36494;50.730;-1.932;2024-02-26T13:14:45;3;3;
49644;PMS5003;36494;50.730;-1.932;2024-02-26T13:17:10;3;1;
49644;PMS5003;36494;50.730;-1.932;2024-02-26T13:19:35;4;4;
49644;PMS5003;36494;50.730;-1.932;2024-02-26T13:22:04;3;3;
49644;PMS5003;36494;50.730;-1.932;2024-02-26T13:24:27;3;3;
49644;PMS5003;36494;50.730;-1.932;2024-02-26T13:26:55;1;1;
49644;PMS5003;36494;50.730;-1.932;2024-02-26T13:29:18;3;1;
49644;PMS5003;36494;50.730;-1.932;2024-02-26T13:31:43;1;1;
49644;PMS5003;36494;50.730;-1.932;2024-02-26T13:34:09;4;3;
49644;PMS5003;36494;50.730;-1.932;2024-02-26T13:36:34;3;1;
49644;PMS5003;36494;50.730;-1.932;2024-02-26T13:39:00;3;3;
49644;PMS5003;36494;50.730;-1.932;2024-02-26T13:41:27;7;7;
49644;PMS5003;36494;50.730;-1.932;2024-02-26T13:43:52;3;3;
49644;PMS5003;36494;50.730;-1.932;2024-02-26T13:46:18;15;15;
49644;PMS5003;36494;50.730;-1.932;2024-02-26T13:48:44;10;10;
49644;PMS5003;36494;50.730;-1.932;2024-02-26T13:51:09;7;7;
49644;PMS5003;36494;50.730;-1.932;2024-02-26T13:53:34;37;37;
49644;PMS5003;36494;50.730;-1.932;2024-02-26T13:56:00;6;4;
49644;PMS5003;36494;50.730;-1.932;2024-02-26T13:58:25;6;4;
49644;PMS5003;36494;50.730;-1.932;2024-02-26T14:00:54;7;7;
49644;PMS5003;36494;50.730;-1.932;2024-02-26T14:03:16;3;3;
49644;PMS5003;36494;50.730;-1.932;2024-02-26T14:05:42;3;3;
49644;PMS5003;36494;50.730;-1.932;2024-02-26T14:08:07;6;4;
49644;PMS5003;36494;50.730;-1.932;2024-02-26T14:10:33;3;3;
49644;PMS5003;36494;50.730;-1.932;2024-02-26T14:12:59;3;3;
49644;PMS5003;36494;50.730;-1.932;2024-02-26T14:15:24;4;4;
49644;PMS5003;36494;50.730;-1.932;2024-02-26T14:17:50;3;3;
49644;PMS5003;36494;50.730;-1.932;2024-02-26T14:20:16;9;9;
49644;PMS5003;36494;50.730;-1.932;2024-02-26T14:22:42;4;4;
49644;PMS5003;36494;50.730;-1.932;2024-02-26T14:25:08;3;3;
49644;PMS5003;36494;50.730;-1.932;2024-02-26T14:27:33;4;3;
49644;PMS5003;36494;50.730;-1.932;2024-02-26T14:29:59;3;3;
49644;PMS5003;36494;50.730;-1.932;2024-02-26T14:32:24;9;9;
49644;PMS5003;36494;50.730;-1.932;2024-02-26T14:34:49;9;9;
49644;PMS5003;36494;50.730;-1.932;2024-02-26T14:37:15;3;3;
49644;PMS5003;36494;50.730;-1.932;2024-02-26T14:39:41;3;3;
49644;PMS5003;36494;50.730;-1.932;2024-02-26T14:42:07;9;7;
49644;PMS5003;36494;50.730;-1.932;2024-02-26T14:44:32;3;3;
49644;PMS5003;36494;50.730;-1.932;2024-02-26T14:46:57;6;4;
49644;PMS5003;36494;50.730;-1.932;2024-02-26T14:49:23;6;6;
49644;PMS5003;36494;50.730;-1.932;2024-02-26T14:51:50;6;6;
49644;PMS5003;36494;50.730;-1.932;2024-02-26T14:54:15;10;10;
49644;PMS5003;36494;50.730;-1.932;2024-02-26T14:56:41;4;4;
49644;PMS5003;36494;50.730;-1.932;2024-02-26T14:59:06;4;4;
49644;PMS5003;36494;50.730;-1.932;2024-02-26T15:01:32;4;3;
49644;PMS5003;36494;50.730;-1.932;2024-02-26T15:03:57;10;10;
49644;PMS5003;36494;50.730;-1.932;2024-02-26T15:06:23;7;6;
49644;PMS5003;36494;50.730;-1.932;2024-02-26T15:08:49;1;1;
49644;PMS5003;36494;50.730;-1.932;2024-02-26T15:11:14;3;3;
49644;PMS5003;36494;50.730;-1.932;2024-02-26T15:13:43;1;1;
49644;PMS5003;36494;50.730;-1.932;2024-02-26T15:16:06;1;1;
49644;PMS5003;36494;50.730;-1.932;2024-02-26T15:18:32;3;3;
49644;PMS5003;36494;50.730;-1.932;2024-02-26T15:20:57;3;3;
49644;PMS5003;36494;50.730;-1.932;2024-02-26T15:23:23;3;3;
49644;PMS5003;36494;50.730;-1.932;2024-02-26T15:25:52;1;1;
49644;PMS5003;36494;50.730;-1.932;2024-02-26T15:28:14;1;1;
49644;PMS5003;36494;50.730;-1.932;2024-02-26T15:30:40;1;1;
49644;PMS5003;36494;50.730;-1.932;2024-02-26T15:33:05;1;1;
49644;PMS5003;36494;50.730;-1.932;2024-02-26T15:35:31;4;4;
49644;PMS5003;36494;50.730;-1.932;2024-02-26T15:37:56;1;1;
49644;PMS5003;36494;50.730;-1.932;2024-02-26T15:40:23;3;3;
49644;PMS5003;36494;50.730;-1.932;2024-02-26T15:42:49;3;1;
49644;PMS5003;36494;50.730;-1.932;2024-02-26T15:45:14;3;3;
49644;PMS5003;36494;50.730;-1.932;2024-02-26T15:47:41;4;4;
49644;PMS5003;36494;50.730;-1.932;2024-02-26T15:50:09;1;1;
49644;PMS5003;36494;50.730;-1.932;2024-02-26T15:52:31;3;3;
49644;PMS5003;36494;50.730;-1.932;2024-02-26T15:54:56;4;4;
49644;PMS5003;36494;50.730;-1.932;2024-02-26T15:57:22;4;3;
49644;PMS5003;36494;50.730;-1.932;2024-02-26T15:59:48;1;1;
49644;PMS5003;36494;50.730;-1.932;2024-02-26T16:02:13;3;1;
49644;PMS5003;36494;50.730;-1.932;2024-02-26T16:04:40;3;3;
49644;PMS5003;36494;50.730;-1.932;2024-02-26T16:07:05;4;4;
49644;PMS5003;36494;50.730;-1.932;2024-02-26T16:09:31;1;1;
49644;PMS5003;36494;50.730;-1.932;2024-02-26T16:11:57;1;1;
49644;PMS5003;36494;50.730;-1.932;2024-02-26T16:14:30;1;1;